General Aviation Weather

Text Reports

Enter one or more of the following location identifiers separated by a space:

Zip Code, Four-Character ICAO or Three-Character IATA airport codes.

METAR - Aviation Routine Weather Report
RJSA - Aomori Airport,
Updated at 3:00 AM GMT on July 26, 2014 (12:00 PM JST):
METAR RJSA 260300Z 20010KT 160V240 9999 FEW025 SCT050 BKN080 29/22 Q1008
TAF - Terminal Area Forecast
RJSA - Aomori Airport,
Updated at 3:00 AM GMT on July 26, 2014 (12:00 PM JST):
TAF RJSA 252309Z 2600/2706 02004KT 9999 FEW020 BKN040
      BECMG 2602/2604 21010KT
      BECMG 2609/2611 21015G25KT
      TEMPO 2621/2706 23025G35KT=
Decoded:
ID: RJSA   Aomori Airport, JP
REPORT TIME: 25 23: 9
VALID TIME: 26 July AT 00:00Z to 27 July AT 06:00Z.
INITIAL WX
   WINDS: 20 AT 4
   CLOUDS: 20 FEW
   CLOUDS: 40 BKN
WX BECOMING FROM 02Z TO 04Z
   WINDS: 210 AT 10
WX BECOMING FROM 09Z TO 11Z
   WINDS: 210 AT 15 GUST 25
TEMPORARY WX FROM 21Z TO 06Z
   WINDS: 230 AT 25 GUST 35
   COMMENTS: = 

CORRECTION
INITIAL WX
   WEATHER: TAF_COR_MMMX
   COMMENTS: 252327Z 2600/2706 03010KT 6SM HZ VC RA BKN020CB BKN200 TX24/2622Z TN13/2612Z 
TEMPORARY WX FROM 00Z TO 04Z
   VISIBILITY: 4.0 MILES
   WEATHER: TSRA
NEW WX STARTING: 06:00Z
   WINDS: CALM
   VISIBILITY: >6.0 MILES
   CLOUDS: 25 SCT
   CLOUDS: 80 BKN
NEW WX STARTING: 12:00Z
   WINDS: CALM
   VISIBILITY: 5.0 MILES
   WEATHER: HZ
   CLOUDS: 20 BKN
   CLOUDS: 80 BKN
NEW WX STARTING: 18:00Z
   WINDS: 40 AT 10
   VISIBILITY: 5.0 MILES
   WEATHER: HZ
   CLOUDS: 20 SCT
   CLOUDS: 80 SCT
40% PROBABILITY OF WX FROM 22Z TO 02Z
   VISIBILITY: 5.0 MILES
   WEATHER: TSRA
   CLOUDS: 20 BKN WITH CB
   COMMENTS: = 

PIREP - Pilot Weather Report
RJSA - Aomori Airport,
Updated at 3:00 AM GMT on July 26, 2014 (12:00 PM JST):
No PIREP is currently available for this location.
AIRMET - Airmens Meteorological Information
RJSA - Aomori Airport,
Updated at 3:00 AM GMT on July 26, 2014 (12:00 PM JST):
No AIRMET is currently available for this location.
SIGMET - Significant Meteorological Information
RJSA - Aomori Airport,
Updated at 3:00 AM GMT on July 26, 2014 (12:00 PM JST):
No SIGMET is currently available for this location.
NOTAM - Notice to Airmen
RJSA - Aomori Airport,
Updated at 3:00 AM GMT on July 26, 2014 (12:00 PM JST):
No NOTAM is currently available for this location.
Forecast Area
RJSA - Aomori Airport,
Updated at 3:00 AM GMT on July 26, 2014 (12:00 PM JST):
No NOTAM is currently available for this location.
Aviation Weather Maps